Shenadoah, Ohio
Current Conditions -  °F | °C
As of 8:12 AM on Wednesday 22 Oct 2014 (Local Time) from KMFD Reporting Station
Haze Haze  
Wind Chill: 38°   Ceiling: 500
Heat Index: 44°   Visibility: 5mi
Dew Point: 43°   Wind: 12mph
Humidity: 96%   Direction: 330°NNW
Pressure: 30.22"   Gusts: NA
Location:  40.9484°N, 82.5121°W
Report Text: KMFD 221212Z 33010KT 5SM BR OVC005 07/06 A3022 RMK AO2 T00670061
Loading
Personal Weather Stations






























Interactive Weather Map
Tropical Storm Tracking
New forecast layout! Learn more

10-Day Weather Forecast

Advertisements
Track Severe Weather on mobile